Liberty of The Seas — C6VQ8 — position and weather

sailwx.info

Track history (hours):
 
Tides and Currents Weather Stations Pressure Air Temp Water Temp Dewpoint Dewpoint Depression Visibility Wind Speed Wind Dir Waves Ship Positions

Liberty of The Seas

Last reported at 2014-Sep-20 04:11 UTC. Time now 2014-Sep-20 10:02 UTC.
Position N 41°14' E 010°21'.

Type: Passenger vessel. MMSI: 309436000.

Date/timePositionNaut miles runAvg speedWind from/ knotsBaromVisibWave heightAir tempDewpointWater temp
2014-Sep-20 04:11N 41°14' E 010°21'  
2014-Sep-17 19:30N 43°34' E 009°38'1617.1
2014-Sep-17 18:33N 43°49' E 009°47'1515.5
2014-Sep-17 17:33N 44°04' E 009°51'2 2.4
2014-Sep-17 16:32N 44°06' E 009°50'0 0.0
2014-Sep-17 15:32N 44°06' E 009°50'0 0.0
2014-Sep-17 14:32N 44°06' E 009°50'0 0.0
2014-Sep-17 13:32N 44°06' E 009°50'0 0.0
2014-Sep-17 12:32N 44°06' E 009°50'0 0.0
2014-Sep-17 11:32N 44°06' E 009°50'0 0.0
2014-Sep-17 10:29N 44°06' E 009°50'0 0.0
2014-Sep-17 09:29N 44°06' E 009°50'0 0.0
2014-Sep-17 08:32N 44°06' E 009°50'0 0.0
2014-Sep-17 07:32N 44°06' E 009°50'0 0.0
2014-Sep-17 06:32N 44°06' E 009°50'0 0.0
2014-Sep-17 05:32N 44°06' E 009°50'0 0.4
2014-Sep-17 04:34N 44°06' E 009°50'7 7.3
2014-Sep-17 03:34N 44°00' E 009°56'1111.0
2014-Sep-17 02:33N 43°57' E 009°42'1111.1
2014-Sep-17 01:34N 43°55' E 009°26'1111.3
2014-Sep-17 00:34N 43°53' E 009°11'1111.2
2014-Sep-16 23:34N 43°52' E 008°55'1211.3
2014-Sep-16 22:33N 43°50' E 008°40'5811.3
2014-Sep-16 17:24N 43°39' E 007°21'2 1.3
2014-Sep-16 15:30N 43°41' E 007°19'0 0.0
2014-Sep-16 14:24N 43°41' E 007°19'0 0.0
2014-Sep-16 13:24N 43°41' E 007°19'0 0.0
2014-Sep-16 12:30N 43°41' E 007°19'0 0.0
2014-Sep-16 11:30N 43°41' E 007°19'0 0.0
2014-Sep-16 10:24N 43°41' E 007°19'0 0.0
2014-Sep-16 09:06N 43°41' E 007°19'0 0.0
2014-Sep-16 08:24N 43°41' E 007°19'0 0.0
2014-Sep-16 07:12N 43°41' E 007°19'0 0.0
2014-Sep-16 06:12N 43°41' E 007°19'0 0.1
2014-Sep-16 04:30N 43°41' E 007°19'1010.3
2014-Sep-16 03:33N 43°32' E 007°17'1512.1
2014-Sep-16 02:17N 43°17' E 007°12'912.5
2014-Sep-16 01:33N 43°09' E 007°05'1312.1
2014-Sep-16 00:31N 43°00' E 006°53'1212.4
2014-Sep-15 23:33N 42°51' E 006°42'2811.4
2014-Sep-15 21:08N 42°45' E 006°05'712.1
2014-Sep-15 20:31N 42°46' E 005°56'1212.0
2014-Sep-15 19:33N 42°49' E 005°40'3411.3
2014-Sep-15 16:33N 43°18' E 005°16'4 2.7
2014-Sep-15 15:12N 43°21' E 005°20'0 0.0
2014-Sep-15 14:15N 43°21' E 005°20'0 0.0
2014-Sep-15 13:21N 43°21' E 005°20'0 0.0
2014-Sep-15 12:33N 43°21' E 005°20'0 0.0
2014-Sep-15 11:33N 43°21' E 005°20'0 0.0
2014-Sep-15 10:33N 43°21' E 005°20'0 0.0
2014-Sep-15 09:15N 43°21' E 005°20'0 0.0
2014-Sep-15 08:30N 43°21' E 005°20'0 0.0
2014-Sep-15 07:30N 43°21' E 005°20'0 0.3
2014-Sep-15 06:33N 43°21' E 005°19'8 8.5
2014-Sep-15 05:33N 43°15' E 005°10'3313.2
2014-Sep-15 03:04N 42°51' E 004°40'6413.1
2014-Sep-14 22:08N 42°03' E 003°43'2412.9
2014-Sep-14 20:18N 41°47' E 003°18'1013.0
2014-Sep-14 19:33N 41°42' E 003°07'2013.8
2014-Sep-14 18:08N 41°32' E 002°45'16 1.0
2014-Sep-14 01:21N 41°16' E 002°40'5915.5
2014-Sep-13 21:32N 41°16' E 003°59'5716.4
2014-Sep-13 18:04N 41°17' E 005°15'39416.6
2014-Sep-12 18:22N 40°39' E 013°54'1316.0
2014-Sep-12 17:33N 40°44' E 014°10'2 0.2
2014-Sep-12 03:33N 40°41' E 014°09'1716.2
2014-Sep-12 02:31N 40°39' E 013°46'1616.4
2014-Sep-12 01:33N 40°42' E 013°26'248 8.0
2014-Sep-10 18:33N 43°48' E 009°46'1615.8
2014-Sep-10 17:33N 44°03' E 009°52'3 3.1
2014-Sep-10 16:32N 44°06' E 009°50'0 0.0
2014-Sep-10 15:32N 44°06' E 009°50'0 0.0
2014-Sep-10 14:32N 44°06' E 009°50'0 0.0
2014-Sep-10 11:05N 44°06' E 009°50'0 0.0
2014-Sep-10 10:32N 44°06' E 009°50'0 0.0
2014-Sep-10 07:29N 44°06' E 009°50'  
Track history (hours):
 
Tides and Currents Weather Stations Pressure Air Temp Water Temp Dewpoint Dewpoint Depression Visibility Wind Speed Wind Dir Waves Ship Positions

Liberty of The Seas

Last reported at 2014-Sep-20 04:11 UTC. Time now 2014-Sep-20 10:02 UTC.
Position N 41°14' E 010°21'.

Type: Passenger vessel. MMSI: 309436000.

Date/timePositionNaut miles runAvg speedWind from/ knotsBaromVisibWave heightAir tempDewpointWater temp
2014-Sep-20 04:11N 41°14' E 010°21'  
2014-Sep-17 19:30N 43°34' E 009°38'1617.1
2014-Sep-17 18:33N 43°49' E 009°47'1515.5
2014-Sep-17 17:33N 44°04' E 009°51'2 2.4
2014-Sep-17 16:32N 44°06' E 009°50'0 0.0
2014-Sep-17 15:32N 44°06' E 009°50'0 0.0
2014-Sep-17 14:32N 44°06' E 009°50'0 0.0
2014-Sep-17 13:32N 44°06' E 009°50'0 0.0
2014-Sep-17 12:32N 44°06' E 009°50'0 0.0
2014-Sep-17 11:32N 44°06' E 009°50'0 0.0
2014-Sep-17 10:29N 44°06' E 009°50'0 0.0
2014-Sep-17 09:29N 44°06' E 009°50'0 0.0
2014-Sep-17 08:32N 44°06' E 009°50'0 0.0
2014-Sep-17 07:32N 44°06' E 009°50'0 0.0
2014-Sep-17 06:32N 44°06' E 009°50'0 0.0
2014-Sep-17 05:32N 44°06' E 009°50'0 0.4
2014-Sep-17 04:34N 44°06' E 009°50'7 7.3
2014-Sep-17 03:34N 44°00' E 009°56'1111.0
2014-Sep-17 02:33N 43°57' E 009°42'1111.1
2014-Sep-17 01:34N 43°55' E 009°26'1111.3
2014-Sep-17 00:34N 43°53' E 009°11'1111.2
2014-Sep-16 23:34N 43°52' E 008°55'1211.3
2014-Sep-16 22:33N 43°50' E 008°40'5811.3
2014-Sep-16 17:24N 43°39' E 007°21'2 1.3
2014-Sep-16 15:30N 43°41' E 007°19'0 0.0
2014-Sep-16 14:24N 43°41' E 007°19'0 0.0
2014-Sep-16 13:24N 43°41' E 007°19'0 0.0
2014-Sep-16 12:30N 43°41' E 007°19'0 0.0
2014-Sep-16 11:30N 43°41' E 007°19'0 0.0
2014-Sep-16 10:24N 43°41' E 007°19'0 0.0
2014-Sep-16 09:06N 43°41' E 007°19'0 0.0
2014-Sep-16 08:24N 43°41' E 007°19'0 0.0
2014-Sep-16 07:12N 43°41' E 007°19'0 0.0
2014-Sep-16 06:12N 43°41' E 007°19'0 0.1
2014-Sep-16 04:30N 43°41' E 007°19'1010.3
2014-Sep-16 03:33N 43°32' E 007°17'1512.1
2014-Sep-16 02:17N 43°17' E 007°12'912.5
2014-Sep-16 01:33N 43°09' E 007°05'1312.1
2014-Sep-16 00:31N 43°00' E 006°53'1212.4
2014-Sep-15 23:33N 42°51' E 006°42'2811.4
2014-Sep-15 21:08N 42°45' E 006°05'712.1
2014-Sep-15 20:31N 42°46' E 005°56'1212.0
2014-Sep-15 19:33N 42°49' E 005°40'3411.3
2014-Sep-15 16:33N 43°18' E 005°16'4 2.7
2014-Sep-15 15:12N 43°21' E 005°20'0 0.0
2014-Sep-15 14:15N 43°21' E 005°20'0 0.0
2014-Sep-15 13:21N 43°21' E 005°20'0 0.0
2014-Sep-15 12:33N 43°21' E 005°20'0 0.0
2014-Sep-15 11:33N 43°21' E 005°20'0 0.0
2014-Sep-15 10:33N 43°21' E 005°20'0 0.0
2014-Sep-15 09:15N 43°21' E 005°20'0 0.0
2014-Sep-15 08:30N 43°21' E 005°20'0 0.0
2014-Sep-15 07:30N 43°21' E 005°20'0 0.3
2014-Sep-15 06:33N 43°21' E 005°19'8 8.5
2014-Sep-15 05:33N 43°15' E 005°10'3313.2
2014-Sep-15 03:04N 42°51' E 004°40'6413.1
2014-Sep-14 22:08N 42°03' E 003°43'2412.9
2014-Sep-14 20:18N 41°47' E 003°18'1013.0
2014-Sep-14 19:33N 41°42' E 003°07'2013.8
2014-Sep-14 18:08N 41°32' E 002°45'16 1.0
2014-Sep-14 01:21N 41°16' E 002°40'5915.5
2014-Sep-13 21:32N 41°16' E 003°59'5716.4
2014-Sep-13 18:04N 41°17' E 005°15'39416.6
2014-Sep-12 18:22N 40°39' E 013°54'1316.0
2014-Sep-12 17:33N 40°44' E 014°10'2 0.2
2014-Sep-12 03:33N 40°41' E 014°09'1716.2
2014-Sep-12 02:31N 40°39' E 013°46'1616.4
2014-Sep-12 01:33N 40°42' E 013°26'248 8.0
2014-Sep-10 18:33N 43°48' E 009°46'1615.8
2014-Sep-10 17:33N 44°03' E 009°52'3 3.1
2014-Sep-10 16:32N 44°06' E 009°50'0 0.0
2014-Sep-10 15:32N 44°06' E 009°50'0 0.0
2014-Sep-10 14:32N 44°06' E 009°50'0 0.0
2014-Sep-10 11:05N 44°06' E 009°50'0 0.0
2014-Sep-10 10:32N 44°06' E 009°50'0 0.0
2014-Sep-10 07:29N 44°06' E 009°50'  

Dump ship's entire track history